sensor_id;sensor_type;location;lat;lon;timestamp;temperature;humidity
25342;DHT22;13298;48.792;9.154;2022-10-16T00:01:25;14.80;99.90
25342;DHT22;13298;48.792;9.154;2022-10-16T00:03:56;14.70;99.90
25342;DHT22;13298;48.792;9.154;2022-10-16T00:06:23;14.70;99.90
25342;DHT22;13298;48.792;9.154;2022-10-16T00:08:50;14.70;99.90
25342;DHT22;13298;48.792;9.154;2022-10-16T00:14:05;14.60;99.90
25342;DHT22;13298;48.792;9.154;2022-10-16T00:16:34;14.60;99.90
25342;DHT22;13298;48.792;9.154;2022-10-16T00:19:00;14.60;99.90
25342;DHT22;13298;48.792;9.154;2022-10-16T00:21:28;14.50;99.90
25342;DHT22;13298;48.792;9.154;2022-10-16T00:23:58;14.50;99.90
25342;DHT22;13298;48.792;9.154;2022-10-16T00:26:27;14.40;99.90
25342;DHT22;13298;48.792;9.154;2022-10-16T00:28:54;14.40;99.90
25342;DHT22;13298;48.792;9.154;2022-10-16T00:31:21;14.30;99.90
25342;DHT22;13298;48.792;9.154;2022-10-16T00:33:48;14.30;99.90
25342;DHT22;13298;48.792;9.154;2022-10-16T00:36:16;14.20;99.90
25342;DHT22;13298;48.792;9.154;2022-10-16T00:38:44;14.20;99.90
25342;DHT22;13298;48.792;9.154;2022-10-16T00:41:13;14.10;99.90
25342;DHT22;13298;48.792;9.154;2022-10-16T00:46:20;14.10;99.90
25342;DHT22;13298;48.792;9.154;2022-10-16T00:51:38;14.00;99.90
25342;DHT22;13298;48.792;9.154;2022-10-16T00:54:14;14.00;99.90
25342;DHT22;13298;48.792;9.154;2022-10-16T00:56:43;14.00;99.90
25342;DHT22;13298;48.792;9.154;2022-10-16T00:59:20;14.00;99.90
25342;DHT22;13298;48.792;9.154;2022-10-16T01:01:49;14.00;99.90
25342;DHT22;13298;48.792;9.154;2022-10-16T01:04:15;14.10;99.90
25342;DHT22;13298;48.792;9.154;2022-10-16T01:06:49;14.10;99.90
25342;DHT22;13298;48.792;9.154;2022-10-16T01:09:47;14.10;99.90
25342;DHT22;13298;48.792;9.154;2022-10-16T01:12:50;14.20;99.90
25342;DHT22;13298;48.792;9.154;2022-10-16T01:21:46;14.30;99.90
25342;DHT22;13298;48.792;9.154;2022-10-16T01:24:33;14.40;99.90
25342;DHT22;13298;48.792;9.154;2022-10-16T01:27:14;14.40;99.90
25342;DHT22;13298;48.792;9.154;2022-10-16T01:32:27;14.40;99.90
25342;DHT22;13298;48.792;9.154;2022-10-16T01:35:29;14.40;99.90
25342;DHT22;13298;48.792;9.154;2022-10-16T01:38:12;14.40;99.90
25342;DHT22;13298;48.792;9.154;2022-10-16T01:40:49;14.50;99.90
25342;DHT22;13298;48.792;9.154;2022-10-16T01:43:21;14.40;99.90
25342;DHT22;13298;48.792;9.154;2022-10-16T01:45:49;14.40;99.90
25342;DHT22;13298;48.792;9.154;2022-10-16T01:48:18;14.40;99.90
25342;DHT22;13298;48.792;9.154;2022-10-16T01:50:59;14.40;99.90
25342;DHT22;13298;48.792;9.154;2022-10-16T01:53:29;14.50;99.90
25342;DHT22;13298;48.792;9.154;2022-10-16T01:55:55;14.50;99.90
25342;DHT22;13298;48.792;9.154;2022-10-16T01:58:24;14.40;99.90
25342;DHT22;13298;48.792;9.154;2022-10-16T02:00:51;14.50;99.90
25342;DHT22;13298;48.792;9.154;2022-10-16T02:03:19;14.50;99.90
25342;DHT22;13298;48.792;9.154;2022-10-16T02:05:49;14.50;99.90
25342;DHT22;13298;48.792;9.154;2022-10-16T02:08:17;14.50;99.90
25342;DHT22;13298;48.792;9.154;2022-10-16T02:10:43;14.50;99.90
25342;DHT22;13298;48.792;9.154;2022-10-16T02:13:13;14.50;99.90
25342;DHT22;13298;48.792;9.154;2022-10-16T02:15:42;14.50;99.90
25342;DHT22;13298;48.792;9.154;2022-10-16T02:18:09;14.50;99.90
25342;DHT22;13298;48.792;9.154;2022-10-16T02:21:18;14.50;99.90
25342;DHT22;13298;48.792;9.154;2022-10-16T02:24:13;14.50;99.90
25342;DHT22;13298;48.792;9.154;2022-10-16T02:26:58;14.50;99.90
25342;DHT22;13298;48.792;9.154;2022-10-16T02:29:28;14.50;99.90
25342;DHT22;13298;48.792;9.154;2022-10-16T02:31:58;14.50;99.90
25342;DHT22;13298;48.792;9.154;2022-10-16T02:34:27;14.50;99.90
25342;DHT22;13298;48.792;9.154;2022-10-16T02:36:56;14.50;99.90
25342;DHT22;13298;48.792;9.154;2022-10-16T02:39:24;14.60;99.90
25342;DHT22;13298;48.792;9.154;2022-10-16T02:41:51;14.60;99.90
25342;DHT22;13298;48.792;9.154;2022-10-16T02:44:16;14.60;99.90
25342;DHT22;13298;48.792;9.154;2022-10-16T02:46:42;14.60;99.90
25342;DHT22;13298;48.792;9.154;2022-10-16T02:49:08;14.60;99.90
25342;DHT22;13298;48.792;9.154;2022-10-16T02:51:33;14.60;99.90
25342;DHT22;13298;48.792;9.154;2022-10-16T02:53:59;14.60;99.90
25342;DHT22;13298;48.792;9.154;2022-10-16T02:56:25;14.60;99.90
25342;DHT22;13298;48.792;9.154;2022-10-16T02:58:51;14.60;99.90
25342;DHT22;13298;48.792;9.154;2022-10-16T03:01:16;14.60;99.90
25342;DHT22;13298;48.792;9.154;2022-10-16T03:03:42;14.60;99.90
25342;DHT22;13298;48.792;9.154;2022-10-16T03:06:08;14.60;99.90
25342;DHT22;13298;48.792;9.154;2022-10-16T03:08:34;14.60;99.90
25342;DHT22;13298;48.792;9.154;2022-10-16T03:10:59;14.60;99.90
25342;DHT22;13298;48.792;9.154;2022-10-16T03:13:25;14.60;99.90
25342;DHT22;13298;48.792;9.154;2022-10-16T03:15:51;14.60;99.90
25342;DHT22;13298;48.792;9.154;2022-10-16T03:18:17;14.60;99.90
25342;DHT22;13298;48.792;9.154;2022-10-16T03:20:43;14.60;99.90
25342;DHT22;13298;48.792;9.154;2022-10-16T03:23:09;14.50;99.90
25342;DHT22;13298;48.792;9.154;2022-10-16T03:25:34;14.50;99.90
25342;DHT22;13298;48.792;9.154;2022-10-16T03:28:00;14.50;99.90
25342;DHT22;13298;48.792;9.154;2022-10-16T03:30:26;14.50;99.90
25342;DHT22;13298;48.792;9.154;2022-10-16T03:32:52;14.50;99.90
25342;DHT22;13298;48.792;9.154;2022-10-16T03:35:20;14.50;99.90
25342;DHT22;13298;48.792;9.154;2022-10-16T03:37:46;14.50;99.90
25342;DHT22;13298;48.792;9.154;2022-10-16T03:40:13;14.50;99.90
25342;DHT22;13298;48.792;9.154;2022-10-16T03:42:39;14.50;99.90
25342;DHT22;13298;48.792;9.154;2022-10-16T03:45:05;14.50;99.90
25342;DHT22;13298;48.792;9.154;2022-10-16T03:47:31;14.50;99.90
25342;DHT22;13298;48.792;9.154;2022-10-16T03:49:59;14.40;99.90
25342;DHT22;13298;48.792;9.154;2022-10-16T03:52:25;14.40;99.90
25342;DHT22;13298;48.792;9.154;2022-10-16T03:54:50;14.40;99.90
25342;DHT22;13298;48.792;9.154;2022-10-16T03:57:16;14.40;99.90
25342;DHT22;13298;48.792;9.154;2022-10-16T03:59:42;14.30;99.90
25342;DHT22;13298;48.792;9.154;2022-10-16T04:02:09;14.30;99.90
25342;DHT22;13298;48.792;9.154;2022-10-16T04:04:34;14.30;99.90
25342;DHT22;13298;48.792;9.154;2022-10-16T04:07:00;14.30;99.90
25342;DHT22;13298;48.792;9.154;2022-10-16T04:09:26;14.30;99.90
25342;DHT22;13298;48.792;9.154;2022-10-16T04:11:52;14.20;99.90
25342;DHT22;13298;48.792;9.154;2022-10-16T04:14:17;14.20;99.90
25342;DHT22;13298;48.792;9.154;2022-10-16T04:16:43;14.20;99.90
25342;DHT22;13298;48.792;9.154;2022-10-16T04:19:10;14.10;99.90
25342;DHT22;13298;48.792;9.154;2022-10-16T04:21:36;14.10;99.90
25342;DHT22;13298;48.792;9.154;2022-10-16T04:24:02;14.10;99.90
25342;DHT22;13298;48.792;9.154;2022-10-16T04:26:28;14.10;99.90
25342;DHT22;13298;48.792;9.154;2022-10-16T04:28:53;14.10;99.90
25342;DHT22;13298;48.792;9.154;2022-10-16T04:31:19;14.10;99.90
25342;DHT22;13298;48.792;9.154;2022-10-16T04:33:45;14.10;99.90
25342;DHT22;13298;48.792;9.154;2022-10-16T04:36:11;14.10;99.90
25342;DHT22;13298;48.792;9.154;2022-10-16T04:38:38;14.10;99.90
25342;DHT22;13298;48.792;9.154;2022-10-16T04:41:05;14.10;99.90
25342;DHT22;13298;48.792;9.154;2022-10-16T04:43:32;14.10;99.90
25342;DHT22;13298;48.792;9.154;2022-10-16T04:45:58;14.10;99.90
25342;DHT22;13298;48.792;9.154;2022-10-16T04:48:23;14.20;99.90
25342;DHT22;13298;48.792;9.154;2022-10-16T04:50:49;14.20;99.90
25342;DHT22;13298;48.792;9.154;2022-10-16T04:53:15;14.20;99.90
25342;DHT22;13298;48.792;9.154;2022-10-16T04:55:41;14.20;99.90
25342;DHT22;13298;48.792;9.154;2022-10-16T04:58:07;14.20;99.90
25342;DHT22;13298;48.792;9.154;2022-10-16T05:00:34;14.10;99.90
25342;DHT22;13298;48.792;9.154;2022-10-16T05:02:59;14.10;99.90
25342;DHT22;13298;48.792;9.154;2022-10-16T05:05:26;14.10;99.90
25342;DHT22;13298;48.792;9.154;2022-10-16T05:07:53;14.10;99.90
25342;DHT22;13298;48.792;9.154;2022-10-16T05:10:19;14.20;99.90
25342;DHT22;13298;48.792;9.154;2022-10-16T05:12:45;14.20;99.90
25342;DHT22;13298;48.792;9.154;2022-10-16T05:15:11;14.10;99.90
25342;DHT22;13298;48.792;9.154;2022-10-16T05:17:37;14.10;99.90
25342;DHT22;13298;48.792;9.154;2022-10-16T05:20:04;14.10;99.90
25342;DHT22;13298;48.792;9.154;2022-10-16T05:22:30;14.10;99.90
25342;DHT22;13298;48.792;9.154;2022-10-16T05:24:56;14.10;99.90
25342;DHT22;13298;48.792;9.154;2022-10-16T05:27:21;14.10;99.90
25342;DHT22;13298;48.792;9.154;2022-10-16T05:29:48;14.10;99.90
25342;DHT22;13298;48.792;9.154;2022-10-16T05:32:18;14.10;99.90
25342;DHT22;13298;48.792;9.154;2022-10-16T05:34:44;14.10;99.90
25342;DHT22;13298;48.792;9.154;2022-10-16T05:37:10;14.10;99.90
25342;DHT22;13298;48.792;9.154;2022-10-16T05:39:37;14.10;99.90
25342;DHT22;13298;48.792;9.154;2022-10-16T05:42:04;14.00;99.90
25342;DHT22;13298;48.792;9.154;2022-10-16T05:44:30;14.00;99.90
25342;DHT22;13298;48.792;9.154;2022-10-16T05:46:56;13.90;99.90
25342;DHT22;13298;48.792;9.154;2022-10-16T05:49:21;13.90;99.90
25342;DHT22;13298;48.792;9.154;2022-10-16T05:51:47;13.90;99.90
25342;DHT22;13298;48.792;9.154;2022-10-16T05:54:13;13.90;99.90
25342;DHT22;13298;48.792;9.154;2022-10-16T05:56:38;13.90;99.90
25342;DHT22;13298;48.792;9.154;2022-10-16T05:59:05;14.00;99.90
25342;DHT22;13298;48.792;9.154;2022-10-16T06:01:31;14.00;99.90
25342;DHT22;13298;48.792;9.154;2022-10-16T06:03:56;14.10;99.90
25342;DHT22;13298;48.792;9.154;2022-10-16T06:06:24;14.10;99.90
25342;DHT22;13298;48.792;9.154;2022-10-16T06:08:52;14.10;99.90
25342;DHT22;13298;48.792;9.154;2022-10-16T06:11:24;14.20;99.90
25342;DHT22;13298;48.792;9.154;2022-10-16T06:13:53;14.20;99.90
25342;DHT22;13298;48.792;9.154;2022-10-16T06:16:22;14.20;99.90
25342;DHT22;13298;48.792;9.154;2022-10-16T06:18:50;14.20;99.90
25342;DHT22;13298;48.792;9.154;2022-10-16T06:21:22;14.20;99.90
25342;DHT22;13298;48.792;9.154;2022-10-16T06:23:53;14.30;99.90
25342;DHT22;13298;48.792;9.154;2022-10-16T06:26:22;14.30;99.90
25342;DHT22;13298;48.792;9.154;2022-10-16T06:28:49;14.30;99.90
25342;DHT22;13298;48.792;9.154;2022-10-16T06:31:16;14.30;99.90
25342;DHT22;13298;48.792;9.154;2022-10-16T06:33:42;14.30;99.90
25342;DHT22;13298;48.792;9.154;2022-10-16T06:36:16;14.40;99.90
25342;DHT22;13298;48.792;9.154;2022-10-16T06:38:43;14.40;99.90
25342;DHT22;13298;48.792;9.154;2022-10-16T06:41:12;14.50;99.90
25342;DHT22;13298;48.792;9.154;2022-10-16T06:43:39;14.60;99.90
25342;DHT22;13298;48.792;9.154;2022-10-16T06:46:06;14.70;99.90
25342;DHT22;13298;48.792;9.154;2022-10-16T06:48:36;14.70;99.90
25342;DHT22;13298;48.792;9.154;2022-10-16T06:53:44;14.90;99.90
25342;DHT22;13298;48.792;9.154;2022-10-16T06:56:18;14.90;99.90
25342;DHT22;13298;48.792;9.154;2022-10-16T06:58:49;15.00;99.90
25342;DHT22;13298;48.792;9.154;2022-10-16T07:01:18;15.00;99.90
25342;DHT22;13298;48.792;9.154;2022-10-16T07:03:46;15.10;99.90
25342;DHT22;13298;48.792;9.154;2022-10-16T07:06:14;15.20;99.90
25342;DHT22;13298;48.792;9.154;2022-10-16T07:08:42;15.30;99.90
25342;DHT22;13298;48.792;9.154;2022-10-16T07:11:12;15.50;99.90
25342;DHT22;13298;48.792;9.154;2022-10-16T07:13:41;15.60;99.90
25342;DHT22;13298;48.792;9.154;2022-10-16T07:18:39;15.90;99.90
25342;DHT22;13298;48.792;9.154;2022-10-16T07:21:19;16.00;99.90
25342;DHT22;13298;48.792;9.154;2022-10-16T07:23:51;16.00;99.90
25342;DHT22;13298;48.792;9.154;2022-10-16T07:26:18;16.10;99.90
25342;DHT22;13298;48.792;9.154;2022-10-16T07:28:44;16.10;99.90
25342;DHT22;13298;48.792;9.154;2022-10-16T07:31:11;16.00;99.90
25342;DHT22;13298;48.792;9.154;2022-10-16T07:33:42;16.00;99.90
25342;DHT22;13298;48.792;9.154;2022-10-16T07:36:10;15.90;99.90
25342;DHT22;13298;48.792;9.154;2022-10-16T07:38:36;15.90;99.90
25342;DHT22;13298;48.792;9.154;2022-10-16T07:41:06;15.80;99.90
25342;DHT22;13298;48.792;9.154;2022-10-16T07:43:33;15.80;99.90
25342;DHT22;13298;48.792;9.154;2022-10-16T07:45:59;15.80;99.90
25342;DHT22;13298;48.792;9.154;2022-10-16T07:48:31;15.80;99.90
25342;DHT22;13298;48.792;9.154;2022-10-16T07:50:58;15.90;99.90
25342;DHT22;13298;48.792;9.154;2022-10-16T07:53:28;16.00;99.90
25342;DHT22;13298;48.792;9.154;2022-10-16T07:55:59;16.10;99.90
25342;DHT22;13298;48.792;9.154;2022-10-16T07:58:26;16.20;99.90
25342;DHT22;13298;48.792;9.154;2022-10-16T08:00:53;16.40;99.90
25342;DHT22;13298;48.792;9.154;2022-10-16T08:03:19;16.50;99.90
25342;DHT22;13298;48.792;9.154;2022-10-16T08:05:44;16.60;99.90
25342;DHT22;13298;48.792;9.154;2022-10-16T08:08:14;16.70;99.90
25342;DHT22;13298;48.792;9.154;2022-10-16T08:10:41;16.90;99.90
25342;DHT22;13298;48.792;9.154;2022-10-16T08:13:07;17.10;99.90
25342;DHT22;13298;48.792;9.154;2022-10-16T08:15:32;17.30;99.90
25342;DHT22;13298;48.792;9.154;2022-10-16T08:18:00;17.40;99.90
25342;DHT22;13298;48.792;9.154;2022-10-16T08:20:27;17.60;99.90
25342;DHT22;13298;48.792;9.154;2022-10-16T08:22:55;17.80;99.90
25342;DHT22;13298;48.792;9.154;2022-10-16T08:25:24;17.90;99.90
25342;DHT22;13298;48.792;9.154;2022-10-16T08:27:50;18.00;99.90
25342;DHT22;13298;48.792;9.154;2022-10-16T08:30:17;18.10;99.90
25342;DHT22;13298;48.792;9.154;2022-10-16T08:32:44;18.20;99.90
25342;DHT22;13298;48.792;9.154;2022-10-16T08:35:11;18.30;99.90
25342;DHT22;13298;48.792;9.154;2022-10-16T08:37:37;18.50;99.90
25342;DHT22;13298;48.792;9.154;2022-10-16T08:40:05;18.60;99.90
25342;DHT22;13298;48.792;9.154;2022-10-16T08:48:46;18.90;99.90
25342;DHT22;13298;48.792;9.154;2022-10-16T08:51:33;18.90;99.90
25342;DHT22;13298;48.792;9.154;2022-10-16T08:54:08;18.90;99.90
25342;DHT22;13298;48.792;9.154;2022-10-16T08:56:47;19.10;99.90
25342;DHT22;13298;48.792;9.154;2022-10-16T08:59:14;19.10;99.90
25342;DHT22;13298;48.792;9.154;2022-10-16T09:01:44;19.10;99.90
25342;DHT22;13298;48.792;9.154;2022-10-16T09:04:37;19.20;99.90
25342;DHT22;13298;48.792;9.154;2022-10-16T09:12:57;19.30;99.90
25342;DHT22;13298;48.792;9.154;2022-10-16T09:21:45;19.20;99.90
25342;DHT22;13298;48.792;9.154;2022-10-16T09:24:18;19.10;99.90
25342;DHT22;13298;48.792;9.154;2022-10-16T09:26:46;19.00;99.90
25342;DHT22;13298;48.792;9.154;2022-10-16T09:29:17;18.90;99.90
25342;DHT22;13298;48.792;9.154;2022-10-16T09:31:50;18.80;99.90
25342;DHT22;13298;48.792;9.154;2022-10-16T09:36:57;18.60;99.90
25342;DHT22;13298;48.792;9.154;2022-10-16T09:39:24;18.50;99.90
25342;DHT22;13298;48.792;9.154;2022-10-16T09:41:50;18.40;99.90
25342;DHT22;13298;48.792;9.154;2022-10-16T09:47:21;18.40;99.90
25342;DHT22;13298;48.792;9.154;2022-10-16T09:49:57;18.40;99.90
25342;DHT22;13298;48.792;9.154;2022-10-16T09:52:24;18.40;99.90
25342;DHT22;13298;48.792;9.154;2022-10-16T09:54:55;18.30;99.90
25342;DHT22;13298;48.792;9.154;2022-10-16T09:57:23;18.40;99.90
25342;DHT22;13298;48.792;9.154;2022-10-16T09:59:54;18.50;99.90
25342;DHT22;13298;48.792;9.154;2022-10-16T10:02:36;18.60;99.90
25342;DHT22;13298;48.792;9.154;2022-10-16T10:05:04;18.80;99.90
25342;DHT22;13298;48.792;9.154;2022-10-16T10:07:42;19.00;99.90
25342;DHT22;13298;48.792;9.154;2022-10-16T10:10:29;19.10;99.90
25342;DHT22;13298;48.792;9.154;2022-10-16T10:12:56;19.40;99.90
25342;DHT22;13298;48.792;9.154;2022-10-16T10:15:23;19.50;99.90
25342;DHT22;13298;48.792;9.154;2022-10-16T10:17:57;19.70;99.90
25342;DHT22;13298;48.792;9.154;2022-10-16T10:20:31;19.80;99.90
25342;DHT22;13298;48.792;9.154;2022-10-16T10:23:21;19.90;99.90
25342;DHT22;13298;48.792;9.154;2022-10-16T10:28:46;20.00;99.90
25342;DHT22;13298;48.792;9.154;2022-10-16T10:31:33;20.10;99.90
25342;DHT22;13298;48.792;9.154;2022-10-16T10:43:29;20.90;99.90
25342;DHT22;13298;48.792;9.154;2022-10-16T10:46:05;21.00;99.90
25342;DHT22;13298;48.792;9.154;2022-10-16T10:51:58;21.10;99.90
25342;DHT22;13298;48.792;9.154;2022-10-16T10:57:56;20.90;99.90
25342;DHT22;13298;48.792;9.154;2022-10-16T11:06:39;20.50;99.90
25342;DHT22;13298;48.792;9.154;2022-10-16T11:09:24;20.40;99.90
25342;DHT22;13298;48.792;9.154;2022-10-16T11:12:41;20.30;99.90
25342;DHT22;13298;48.792;9.154;2022-10-16T11:14:55;20.20;99.90
25342;DHT22;13298;48.792;9.154;2022-10-16T11:17:30;20.00;99.90
25342;DHT22;13298;48.792;9.154;2022-10-16T11:20:19;20.00;99.90
25342;DHT22;13298;48.792;9.154;2022-10-16T11:22:54;20.00;99.90
25342;DHT22;13298;48.792;9.154;2022-10-16T11:25:24;20.00;99.90
25342;DHT22;13298;48.792;9.154;2022-10-16T11:28:16;20.10;99.90
25342;DHT22;13298;48.792;9.154;2022-10-16T11:31:24;20.30;99.90
25342;DHT22;13298;48.792;9.154;2022-10-16T11:37:32;20.30;99.90
25342;DHT22;13298;48.792;9.154;2022-10-16T11:40:19;20.30;99.90
25342;DHT22;13298;48.792;9.154;2022-10-16T11:42:56;20.30;99.90
25342;DHT22;13298;48.792;9.154;2022-10-16T11:45:55;20.30;99.90
25342;DHT22;13298;48.792;9.154;2022-10-16T11:51:14;20.40;99.90
25342;DHT22;13298;48.792;9.154;2022-10-16T11:53:56;20.50;99.90
25342;DHT22;13298;48.792;9.154;2022-10-16T11:56:30;20.70;99.90
25342;DHT22;13298;48.792;9.154;2022-10-16T11:59:17;20.80;99.90
25342;DHT22;13298;48.792;9.154;2022-10-16T12:04:50;21.20;99.90
25342;DHT22;13298;48.792;9.154;2022-10-16T12:07:29;21.20;99.90
25342;DHT22;13298;48.792;9.154;2022-10-16T12:10:26;21.30;99.90
25342;DHT22;13298;48.792;9.154;2022-10-16T12:12:53;21.30;99.90
25342;DHT22;13298;48.792;9.154;2022-10-16T12:15:28;21.40;99.90
25342;DHT22;13298;48.792;9.154;2022-10-16T12:17:55;21.60;99.90
25342;DHT22;13298;48.792;9.154;2022-10-16T12:20:32;21.70;99.90
25342;DHT22;13298;48.792;9.154;2022-10-16T12:23:05;21.80;99.90
25342;DHT22;13298;48.792;9.154;2022-10-16T12:25:33;21.80;99.90
25342;DHT22;13298;48.792;9.154;2022-10-16T12:28:19;21.80;99.90
25342;DHT22;13298;48.792;9.154;2022-10-16T12:31:03;21.90;99.90
25342;DHT22;13298;48.792;9.154;2022-10-16T12:33:33;22.00;99.90
25342;DHT22;13298;48.792;9.154;2022-10-16T12:36:03;22.10;99.90
25342;DHT22;13298;48.792;9.154;2022-10-16T12:38:46;22.20;99.90
25342;DHT22;13298;48.792;9.154;2022-10-16T12:43:52;22.00;99.90
25342;DHT22;13298;48.792;9.154;2022-10-16T12:48:44;21.80;99.90
25342;DHT22;13298;48.792;9.154;2022-10-16T12:54:11;21.40;99.90
25342;DHT22;13298;48.792;9.154;2022-10-16T13:03:36;21.00;99.90
25342;DHT22;13298;48.792;9.154;2022-10-16T13:06:35;20.90;99.90
25342;DHT22;13298;48.792;9.154;2022-10-16T13:09:24;20.80;99.90
25342;DHT22;13298;48.792;9.154;2022-10-16T13:12:33;20.80;99.90
25342;DHT22;13298;48.792;9.154;2022-10-16T13:15:28;20.90;99.90
25342;DHT22;13298;48.792;9.154;2022-10-16T13:18:13;21.00;99.90
25342;DHT22;13298;48.792;9.154;2022-10-16T13:29:02;21.50;99.90
25342;DHT22;13298;48.792;9.154;2022-10-16T13:31:30;21.50;99.90
25342;DHT22;13298;48.792;9.154;2022-10-16T13:33:58;21.50;99.90
25342;DHT22;13298;48.792;9.154;2022-10-16T13:36:27;21.50;99.90
25342;DHT22;13298;48.792;9.154;2022-10-16T13:39:13;21.50;99.90
25342;DHT22;13298;48.792;9.154;2022-10-16T13:41:40;21.50;99.90
25342;DHT22;13298;48.792;9.154;2022-10-16T13:44:19;21.60;99.90
25342;DHT22;13298;48.792;9.154;2022-10-16T13:46:57;21.70;99.90
25342;DHT22;13298;48.792;9.154;2022-10-16T13:49:24;21.80;99.90
25342;DHT22;13298;48.792;9.154;2022-10-16T13:51:57;21.80;99.90
25342;DHT22;13298;48.792;9.154;2022-10-16T13:54:26;21.80;99.90
25342;DHT22;13298;48.792;9.154;2022-10-16T13:56:52;21.90;99.90
25342;DHT22;13298;48.792;9.154;2022-10-16T13:59:37;21.80;99.90
25342;DHT22;13298;48.792;9.154;2022-10-16T14:02:37;21.60;99.90
25342;DHT22;13298;48.792;9.154;2022-10-16T14:05:08;21.40;99.90
25342;DHT22;13298;48.792;9.154;2022-10-16T14:07:35;21.20;99.90
25342;DHT22;13298;48.792;9.154;2022-10-16T14:10:25;21.00;99.90
25342;DHT22;13298;48.792;9.154;2022-10-16T14:13:07;21.00;99.90
25342;DHT22;13298;48.792;9.154;2022-10-16T14:15:40;20.90;99.90
25342;DHT22;13298;48.792;9.154;2022-10-16T14:18:05;20.90;99.90
25342;DHT22;13298;48.792;9.154;2022-10-16T14:20:33;21.00;99.90
25342;DHT22;13298;48.792;9.154;2022-10-16T14:23:04;21.10;99.90
25342;DHT22;13298;48.792;9.154;2022-10-16T14:25:45;21.10;99.90
25342;DHT22;13298;48.792;9.154;2022-10-16T14:28:22;21.20;99.90
25342;DHT22;13298;48.792;9.154;2022-10-16T14:30:55;21.20;99.90
25342;DHT22;13298;48.792;9.154;2022-10-16T14:36:12;21.30;99.90
25342;DHT22;13298;48.792;9.154;2022-10-16T14:38:47;21.40;99.90
25342;DHT22;13298;48.792;9.154;2022-10-16T14:41:23;21.40;99.90
25342;DHT22;13298;48.792;9.154;2022-10-16T14:44:00;21.40;99.90
25342;DHT22;13298;48.792;9.154;2022-10-16T14:46:38;21.40;99.90
25342;DHT22;13298;48.792;9.154;2022-10-16T14:51:38;21.40;99.90
25342;DHT22;13298;48.792;9.154;2022-10-16T14:54:10;21.40;99.90
25342;DHT22;13298;48.792;9.154;2022-10-16T14:56:52;21.50;99.90
25342;DHT22;13298;48.792;9.154;2022-10-16T14:59:48;21.50;99.90
25342;DHT22;13298;48.792;9.154;2022-10-16T15:02:28;21.30;99.90
25342;DHT22;13298;48.792;9.154;2022-10-16T15:04:56;21.20;99.90
25342;DHT22;13298;48.792;9.154;2022-10-16T15:07:22;21.10;99.90
25342;DHT22;13298;48.792;9.154;2022-10-16T15:09:48;21.00;99.90
25342;DHT22;13298;48.792;9.154;2022-10-16T15:12:14;21.00;99.90
25342;DHT22;13298;48.792;9.154;2022-10-16T15:14:40;20.90;99.90
25342;DHT22;13298;48.792;9.154;2022-10-16T15:17:09;20.90;99.90
25342;DHT22;13298;48.792;9.154;2022-10-16T15:19:35;20.80;99.90
25342;DHT22;13298;48.792;9.154;2022-10-16T15:22:01;20.70;99.90
25342;DHT22;13298;48.792;9.154;2022-10-16T15:24:27;20.60;99.90
25342;DHT22;13298;48.792;9.154;2022-10-16T15:26:52;20.50;99.90
25342;DHT22;13298;48.792;9.154;2022-10-16T15:29:18;20.40;99.90
25342;DHT22;13298;48.792;9.154;2022-10-16T15:31:44;20.30;99.90
25342;DHT22;13298;48.792;9.154;2022-10-16T15:34:12;20.20;99.90
25342;DHT22;13298;48.792;9.154;2022-10-16T15:36:39;20.10;99.90
25342;DHT22;13298;48.792;9.154;2022-10-16T15:39:19;20.00;99.90
25342;DHT22;13298;48.792;9.154;2022-10-16T15:41:46;20.00;99.90
25342;DHT22;13298;48.792;9.154;2022-10-16T15:44:20;19.90;99.90
25342;DHT22;13298;48.792;9.154;2022-10-16T15:46:48;19.90;99.90
25342;DHT22;13298;48.792;9.154;2022-10-16T15:49:14;19.80;99.90
25342;DHT22;13298;48.792;9.154;2022-10-16T15:51:41;19.70;99.90
25342;DHT22;13298;48.792;9.154;2022-10-16T15:54:08;19.70;99.90
25342;DHT22;13298;48.792;9.154;2022-10-16T15:56:34;19.60;99.90
25342;DHT22;13298;48.792;9.154;2022-10-16T15:59:02;19.60;99.90
25342;DHT22;13298;48.792;9.154;2022-10-16T16:01:28;19.50;99.90
25342;DHT22;13298;48.792;9.154;2022-10-16T16:03:57;19.50;99.90
25342;DHT22;13298;48.792;9.154;2022-10-16T16:06:23;19.40;99.90
25342;DHT22;13298;48.792;9.154;2022-10-16T16:08:50;19.30;99.90
25342;DHT22;13298;48.792;9.154;2022-10-16T16:11:17;19.20;99.90
25342;DHT22;13298;48.792;9.154;2022-10-16T16:13:45;19.10;99.90
25342;DHT22;13298;48.792;9.154;2022-10-16T16:16:13;18.90;99.90
25342;DHT22;13298;48.792;9.154;2022-10-16T16:18:40;18.80;99.90
25342;DHT22;13298;48.792;9.154;2022-10-16T16:21:06;18.60;99.90
25342;DHT22;13298;48.792;9.154;2022-10-16T16:23:32;18.50;99.90
25342;DHT22;13298;48.792;9.154;2022-10-16T16:26:13;18.30;99.90
25342;DHT22;13298;48.792;9.154;2022-10-16T16:28:41;18.10;99.90
25342;DHT22;13298;48.792;9.154;2022-10-16T16:31:08;17.90;99.90
25342;DHT22;13298;48.792;9.154;2022-10-16T16:33:34;17.80;99.90
25342;DHT22;13298;48.792;9.154;2022-10-16T16:36:03;17.70;99.90
25342;DHT22;13298;48.792;9.154;2022-10-16T16:38:32;17.60;99.90
25342;DHT22;13298;48.792;9.154;2022-10-16T16:40:58;17.50;99.90
25342;DHT22;13298;48.792;9.154;2022-10-16T16:43:27;17.40;99.90
25342;DHT22;13298;48.792;9.154;2022-10-16T16:45:53;17.40;99.90
25342;DHT22;13298;48.792;9.154;2022-10-16T16:48:20;17.40;99.90
25342;DHT22;13298;48.792;9.154;2022-10-16T16:50:46;17.40;99.90
25342;DHT22;13298;48.792;9.154;2022-10-16T16:53:12;17.30;99.90
25342;DHT22;13298;48.792;9.154;2022-10-16T16:55:37;17.30;99.90
25342;DHT22;13298;48.792;9.154;2022-10-16T16:58:04;17.30;99.90
25342;DHT22;13298;48.792;9.154;2022-10-16T17:00:30;17.30;99.90
25342;DHT22;13298;48.792;9.154;2022-10-16T17:02:56;17.30;99.90
25342;DHT22;13298;48.792;9.154;2022-10-16T17:05:22;17.30;99.90
25342;DHT22;13298;48.792;9.154;2022-10-16T17:07:48;17.20;99.90
25342;DHT22;13298;48.792;9.154;2022-10-16T17:10:14;17.10;99.90
25342;DHT22;13298;48.792;9.154;2022-10-16T17:12:40;17.00;99.90
25342;DHT22;13298;48.792;9.154;2022-10-16T17:15:06;17.00;99.90
25342;DHT22;13298;48.792;9.154;2022-10-16T17:17:32;16.90;99.90
25342;DHT22;13298;48.792;9.154;2022-10-16T17:19:58;16.80;99.90
25342;DHT22;13298;48.792;9.154;2022-10-16T17:22:24;16.70;99.90
25342;DHT22;13298;48.792;9.154;2022-10-16T17:24:50;16.60;99.90
25342;DHT22;13298;48.792;9.154;2022-10-16T17:27:17;16.60;99.90
25342;DHT22;13298;48.792;9.154;2022-10-16T17:29:43;16.50;99.90
25342;DHT22;13298;48.792;9.154;2022-10-16T17:32:09;16.40;99.90
25342;DHT22;13298;48.792;9.154;2022-10-16T17:34:35;16.40;99.90
25342;DHT22;13298;48.792;9.154;2022-10-16T17:37:01;16.30;99.90
25342;DHT22;13298;48.792;9.154;2022-10-16T17:39:27;16.30;99.90
25342;DHT22;13298;48.792;9.154;2022-10-16T17:41:53;16.30;99.90